Time,TemperatureF,DewpointF,PressureIn,WindDirection,WindDirectionDegrees,WindSpeedMPH,WindSpeedGustMPH,Humidity,HourlyPrecipIn,Conditions,Clouds,dailyrainin,SoftwareType,DateUTC
2013-06-01 00:00:00,69.5,34.0,29.89,North,350,1.0,1.0,27,0.00,,,0.00,WeatherCatV1.15B25,2013-06-01 07:00:00,
2013-06-01 00:05:00,69.6,34.1,29.89,North,350,0.0,0.0,27,0.00,,,0.00,WeatherCatV1.15B25,2013-06-01 07:05:00,
2013-06-01 00:10:00,69.6,35.0,29.89,NNW,334,2.0,2.0,28,0.00,,,0.00,WeatherCatV1.15B25,2013-06-01 07:10:00,
2013-06-01 00:15:00,69.7,35.1,29.89,NNW,334,0.0,0.0,28,0.00,,,0.00,WeatherCatV1.15B25,2013-06-01 07:15:00,
2013-06-01 00:20:00,69.9,35.3,29.89,NNW,334,0.0,0.0,28,0.00,,,0.00,WeatherCatV1.15B25,2013-06-01 07:20:00,
2013-06-01 00:25:00,70.0,35.4,29.89,NNW,334,0.0,0.0,28,0.00,,,0.00,WeatherCatV1.15B25,2013-06-01 07:25:00,
2013-06-01 00:30:00,70.1,35.5,29.89,NNW,334,0.0,0.0,28,0.00,,,0.00,WeatherCatV1.15B25,2013-06-01 07:30:00,
2013-06-01 00:35:00,70.2,36.4,29.89,NNW,334,0.0,0.0,29,0.00,,,0.00,WeatherCatV1.15B25,2013-06-01 07:35:00,
2013-06-01 00:40:00,70.2,36.4,29.89,NNW,334,0.0,0.0,29,0.00,,,0.00,WeatherCatV1.15B25,2013-06-01 07:40:00,
2013-06-01 00:45:00,70.2,35.6,29.88,NNW,334,0.0,0.0,28,0.00,,,0.00,WeatherCatV1.15B25,2013-06-01 07:45:00,
2013-06-01 00:50:00,70.1,35.5,29.88,NNW,334,0.0,0.0,28,0.00,,,0.00,WeatherCatV1.15B25,2013-06-01 07:50:00,
2013-06-01 00:55:00,70.2,35.6,29.88,NNW,334,0.0,0.0,28,0.00,,,0.00,WeatherCatV1.15B25,2013-06-01 07:55:00,
2013-06-01 01:00:00,70.3,36.5,29.88,NNW,334,0.0,0.0,29,0.00,,,0.00,WeatherCatV1.15B25,2013-06-01 08:00:00,
2013-06-01 01:05:00,70.4,36.6,29.88,NNW,334,0.0,0.0,29,0.00,,,0.00,WeatherCatV1.15B25,2013-06-01 08:05:00,
2013-06-01 01:10:00,70.5,37.6,29.88,NNW,334,0.0,0.0,30,0.00,,,0.00,WeatherCatV1.15B25,2013-06-01 08:10:00,
2013-06-01 01:15:00,70.6,37.7,29.88,NNW,336,0.0,0.0,30,0.00,,,0.00,WeatherCatV1.15B25,2013-06-01 08:15:00,
2013-06-01 01:20:00,70.6,37.7,29.88,NNW,334,4.0,4.0,30,0.00,,,0.00,WeatherCatV1.15B25,2013-06-01 08:20:00,
2013-06-01 01:25:00,70.9,36.2,29.88,NNW,332,3.0,3.0,28,0.00,,,0.00,WeatherCatV1.15B25,2013-06-01 08:25:00,
2013-06-01 01:30:00,71.1,36.3,29.87,NNW,343,2.0,4.0,28,0.00,,,0.00,WeatherCatV1.15B25,2013-06-01 08:30:00,
2013-06-01 01:35:00,71.1,37.2,29.87,NNW,329,1.0,3.0,29,0.00,,,0.00,WeatherCatV1.15B25,2013-06-01 08:35:00,
2013-06-01 01:40:00,71.1,37.2,29.87,NNW,329,0.0,0.0,29,0.00,,,0.00,WeatherCatV1.15B25,2013-06-01 08:40:00,
2013-06-01 01:45:00,71.0,38.8,29.87,NNW,329,0.0,0.0,31,0.00,,,0.00,WeatherCatV1.15B25,2013-06-01 08:45:00,
2013-06-01 01:50:00,70.9,40.3,29.87,NNW,329,0.0,0.0,33,0.00,,,0.00,WeatherCatV1.15B25,2013-06-01 08:50:00,
2013-06-01 01:55:00,70.8,40.3,29.87,NNW,329,0.0,0.0,33,0.00,,,0.00,WeatherCatV1.15B25,2013-06-01 08:55:00,
2013-06-01 02:00:00,70.7,40.2,29.87,NNW,329,0.0,0.0,33,0.00,,,0.00,WeatherCatV1.15B25,2013-06-01 09:00:00,
2013-06-01 02:05:00,70.6,40.1,29.87,NNW,329,0.0,0.0,33,0.00,,,0.00,WeatherCatV1.15B25,2013-06-01 09:05:00,
2013-06-01 02:10:00,70.5,40.0,29.87,NNW,329,1.0,1.0,33,0.00,,,0.00,WeatherCatV1.15B25,2013-06-01 09:10:00,
2013-06-01 02:15:00,70.4,39.9,29.86,NNW,329,1.0,2.0,33,0.00,,,0.00,WeatherCatV1.15B25,2013-06-01 09:15:00,
2013-06-01 02:20:00,70.2,39.0,29.86,NNW,329,2.0,3.0,32,0.00,,,0.00,WeatherCatV1.15B25,2013-06-01 09:20:00,
2013-06-01 02:25:00,70.1,38.1,29.86,NNW,331,3.0,3.0,31,0.00,,,0.00,WeatherCatV1.15B25,2013-06-01 09:25:00,
2013-06-01 02:30:00,70.0,38.8,29.86,NNW,332,1.0,4.0,32,0.00,,,0.00,WeatherCatV1.15B25,2013-06-01 09:30:00,
2013-06-01 02:35:00,69.9,39.5,29.86,NNW,327,4.0,4.0,33,0.00,,,0.00,WeatherCatV1.15B25,2013-06-01 09:35:00,
2013-06-01 02:40:00,70.1,39.7,29.86,NNW,340,4.0,4.0,33,0.00,,,0.00,WeatherCatV1.15B25,2013-06-01 09:40:00,
2013-06-01 02:45:00,70.3,39.8,29.85,NNW,331,2.0,5.0,33,0.00,,,0.00,WeatherCatV1.15B25,2013-06-01 09:45:00,
2013-06-01 02:50:00,70.5,40.0,29.85,NNW,335,3.0,4.0,33,0.00,,,0.00,WeatherCatV1.15B25,2013-06-01 09:50:00,
2013-06-01 02:55:00,70.1,40.4,29.85,NNW,329,4.0,4.0,34,0.00,,,0.00,WeatherCatV1.15B25,2013-06-01 09:55:00,
2013-06-01 03:00:00,69.8,40.2,29.85,NNW,334,3.0,4.0,34,0.00,,,0.00,WeatherCatV1.15B25,2013-06-01 10:00:00,
2013-06-01 03:05:00,69.7,40.8,29.85,North,354,3.0,5.0,35,0.00,,,0.00,WeatherCatV1.15B25,2013-06-01 10:05:00,
2013-06-01 03:10:00,70.1,40.4,29.85,NNW,331,4.0,5.0,34,0.00,,,0.00,WeatherCatV1.15B25,2013-06-01 10:10:00,
2013-06-01 03:15:00,70.7,40.9,29.84,NNW,335,3.0,6.0,34,0.00,,,0.00,WeatherCatV1.15B25,2013-06-01 10:15:00,
2013-06-01 03:20:00,71.0,40.4,29.84,NW,321,3.0,5.0,33,0.00,,,0.00,WeatherCatV1.15B25,2013-06-01 10:20:00,
2013-06-01 03:25:00,71.2,41.4,29.84,NW,325,2.0,4.0,34,0.00,,,0.00,WeatherCatV1.15B25,2013-06-01 10:25:00,
2013-06-01 03:30:00,71.3,41.5,29.84,NNW,339,2.0,3.0,34,0.00,,,0.00,WeatherCatV1.15B25,2013-06-01 10:30:00,
2013-06-01 03:35:00,71.0,41.2,29.84,NNW,333,2.0,4.0,34,0.00,,,0.00,WeatherCatV1.15B25,2013-06-01 10:35:00,
2013-06-01 03:40:00,70.9,41.9,29.84,NNW,329,3.0,3.0,35,0.00,,,0.00,WeatherCatV1.15B25,2013-06-01 10:40:00,
2013-06-01 03:45:00,70.9,41.9,29.83,NNW,335,2.0,4.0,35,0.00,,,0.00,WeatherCatV1.15B25,2013-06-01 10:45:00,
2013-06-01 03:50:00,71.0,42.0,29.83,NNW,336,2.0,4.0,35,0.00,,,0.00,WeatherCatV1.15B25,2013-06-01 10:50:00,
2013-06-01 03:55:00,71.2,41.4,29.83,NNW,334,3.0,4.0,34,0.00,,,0.00,WeatherCatV1.15B25,2013-06-01 10:55:00,
2013-06-01 04:00:00,71.3,41.5,29.83,NNW,343,2.0,5.0,34,0.00,,,0.00,WeatherCatV1.15B25,2013-06-01 11:00:00,
2013-06-01 04:05:00,71.5,41.6,29.83,NNW,335,5.0,5.0,34,0.00,,,0.00,WeatherCatV1.15B25,2013-06-01 11:05:00,
2013-06-01 04:10:00,71.6,41.7,29.83,NW,318,3.0,5.0,34,0.00,,,0.00,WeatherCatV1.15B25,2013-06-01 11:10:00,
2013-06-01 04:15:00,71.7,42.6,29.82,NNW,330,2.0,4.0,35,0.00,,,0.00,WeatherCatV1.15B25,2013-06-01 11:15:00,
2013-06-01 04:20:00,71.7,41.8,29.82,NNW,333,2.0,4.0,34,0.00,,,0.00,WeatherCatV1.15B25,2013-06-01 11:20:00,
2013-06-01 04:25:00,71.6,41.7,29.82,NNW,340,3.0,4.0,34,0.00,,,0.00,WeatherCatV1.15B25,2013-06-01 11:25:00,
2013-06-01 04:30:00,71.5,41.6,29.82,NNW,327,1.0,4.0,34,0.00,,,0.00,WeatherCatV1.15B25,2013-06-01 11:30:00,
2013-06-01 04:35:00,71.9,39.6,29.82,NNW,327,4.0,4.0,31,0.00,,,0.00,WeatherCatV1.15B25,2013-06-01 11:35:00,
2013-06-01 04:40:00,72.7,39.5,29.82,NNW,348,2.0,3.0,30,0.00,,,0.00,WeatherCatV1.15B25,2013-06-01 11:40:00,
2013-06-01 04:45:00,73.1,39.8,29.83,NNW,327,0.0,2.0,30,0.00,,,0.00,WeatherCatV1.15B25,2013-06-01 11:45:00,
2013-06-01 04:50:00,73.1,39.8,29.83,NNW,329,0.0,2.0,30,0.00,,,0.00,WeatherCatV1.15B25,2013-06-01 11:50:00,
2013-06-01 04:55:00,72.8,39.5,29.83,NNW,333,3.0,4.0,30,0.00,,,0.00,WeatherCatV1.15B25,2013-06-01 11:55:00,
2013-06-01 05:00:00,72.8,38.7,29.82,NNW,337,2.0,3.0,29,0.00,,,0.00,WeatherCatV1.15B25,2013-06-01 12:00:00,
2013-06-01 05:05:00,73.0,38.9,29.82,NNW,333,3.0,5.0,29,0.00,,,0.00,WeatherCatV1.15B25,2013-06-01 12:05:00,
2013-06-01 05:10:00,73.4,38.3,29.82,NNW,342,3.0,4.0,28,0.00,,,0.00,WeatherCatV1.15B25,2013-06-01 12:10:00,
2013-06-01 05:15:00,73.4,38.3,29.82,NNW,337,4.0,5.0,28,0.00,,,0.00,WeatherCatV1.15B25,2013-06-01 12:15:00,
2013-06-01 05:20:00,73.5,39.3,29.82,NNW,332,4.0,5.0,29,0.00,,,0.00,WeatherCatV1.15B25,2013-06-01 12:20:00,
2013-06-01 05:25:00,73.7,39.5,29.82,NNW,332,4.0,4.0,29,0.00,,,0.00,WeatherCatV1.15B25,2013-06-01 12:25:00,
2013-06-01 05:30:00,74.0,38.8,29.82,NNW,339,2.0,4.0,28,0.00,,,0.00,WeatherCatV1.15B25,2013-06-01 12:30:00,
2013-06-01 05:35:00,74.3,39.1,29.82,NW,321,6.0,6.0,28,0.00,,,0.00,WeatherCatV1.15B25,2013-06-01 12:35:00,
2013-06-01 05:40:00,75.0,38.7,29.82,NNW,335,6.0,6.0,27,0.00,,,0.00,WeatherCatV1.15B25,2013-06-01 12:40:00,
2013-06-01 05:45:00,75.2,38.9,29.82,NNW,347,4.0,6.0,27,0.00,,,0.00,WeatherCatV1.15B25,2013-06-01 12:45:00,
2013-06-01 05:50:00,75.4,39.1,29.82,NNW,345,4.0,7.0,27,0.00,,,0.00,WeatherCatV1.15B25,2013-06-01 12:50:00,
2013-06-01 05:55:00,75.5,39.2,29.82,NNW,338,5.0,8.0,27,0.00,,,0.00,WeatherCatV1.15B25,2013-06-01 12:55:00,
2013-06-01 06:00:00,75.2,38.9,29.82,NNW,333,4.0,7.0,27,0.00,,,0.00,WeatherCatV1.15B25,2013-06-01 13:00:00,
2013-06-01 06:05:00,75.0,38.7,29.82,NNW,345,3.0,9.0,27,0.00,,,0.00,WeatherCatV1.15B25,2013-06-01 13:05:00,
2013-06-01 06:10:00,75.2,37.9,29.82,NNW,336,4.0,8.0,26,0.00,,,0.00,WeatherCatV1.15B25,2013-06-01 13:10:00,
2013-06-01 06:15:00,75.5,38.2,29.81,NNW,341,3.0,9.0,26,0.00,,,0.00,WeatherCatV1.15B25,2013-06-01 13:15:00,
2013-06-01 06:20:00,75.4,38.1,29.81,NNW,347,1.0,4.0,26,0.00,,,0.00,WeatherCatV1.15B25,2013-06-01 13:20:00,
2013-06-01 06:25:00,75.2,37.9,29.81,NNW,336,2.0,4.0,26,0.00,,,0.00,WeatherCatV1.15B25,2013-06-01 13:25:00,
2013-06-01 06:30:00,74.9,37.7,29.82,NNW,332,3.0,6.0,26,0.00,,,0.00,WeatherCatV1.15B25,2013-06-01 13:30:00,
2013-06-01 06:35:00,74.7,37.5,29.82,North,350,4.0,6.0,26,0.00,,,0.00,WeatherCatV1.15B25,2013-06-01 13:35:00,
2013-06-01 06:40:00,74.8,37.6,29.82,NNW,333,3.0,6.0,26,0.00,,,0.00,WeatherCatV1.15B25,2013-06-01 13:40:00,
2013-06-01 06:45:00,74.9,36.7,29.82,NNW,339,5.0,8.0,25,0.00,,,0.00,WeatherCatV1.15B25,2013-06-01 13:45:00,
2013-06-01 06:50:00,75.1,36.9,29.82,NNW,336,9.0,9.0,25,0.00,,,0.00,WeatherCatV1.15B25,2013-06-01 13:50:00,
2013-06-01 06:55:00,75.3,37.0,29.82,NNW,337,7.0,8.0,25,0.00,,,0.00,WeatherCatV1.15B25,2013-06-01 13:55:00,
2013-06-01 07:00:00,75.4,36.1,29.82,NNW,339,4.0,7.0,24,0.00,,,0.00,WeatherCatV1.15B25,2013-06-01 14:00:00,
2013-06-01 07:05:00,75.5,36.2,29.82,NNW,341,4.0,5.0,24,0.00,,,0.00,WeatherCatV1.15B25,2013-06-01 14:05:00,
2013-06-01 07:10:00,75.4,36.1,29.82,NNW,331,5.0,9.0,24,0.00,,,0.00,WeatherCatV1.15B25,2013-06-01 14:10:00,
2013-06-01 07:15:00,75.3,37.0,29.82,NNW,335,5.0,5.0,25,0.00,,,0.00,WeatherCatV1.15B25,2013-06-01 14:15:00,
2013-06-01 07:20:00,75.1,36.9,29.82,NNW,335,6.0,7.0,25,0.00,,,0.00,WeatherCatV1.15B25,2013-06-01 14:20:00,
2013-06-01 07:25:00,75.1,36.9,29.82,NNW,333,5.0,5.0,25,0.00,,,0.00,WeatherCatV1.15B25,2013-06-01 14:25:00,
2013-06-01 07:30:00,75.1,37.9,29.82,NNW,341,3.0,7.0,26,0.00,,,0.00,WeatherCatV1.15B25,2013-06-01 14:30:00,
2013-06-01 07:35:00,75.0,37.8,29.82,NNW,335,3.0,5.0,26,0.00,,,0.00,WeatherCatV1.15B25,2013-06-01 14:35:00,
2013-06-01 07:40:00,74.8,38.6,29.82,NNW,337,3.0,4.0,27,0.00,,,0.00,WeatherCatV1.15B25,2013-06-01 14:40:00,
2013-06-01 07:45:00,74.7,37.5,29.82,NNW,333,7.0,7.0,26,0.00,,,0.00,WeatherCatV1.15B25,2013-06-01 14:45:00,
2013-06-01 07:50:00,74.9,37.7,29.82,NW,316,7.0,8.0,26,0.00,,,0.00,WeatherCatV1.15B25,2013-06-01 14:50:00,
2013-06-01 07:55:00,75.1,37.9,29.82,NNE,16,4.0,6.0,26,0.00,,,0.00,WeatherCatV1.15B25,2013-06-01 14:55:00,
2013-06-01 08:00:00,75.3,38.0,29.83,NNW,337,4.0,8.0,26,0.00,,,0.00,WeatherCatV1.15B25,2013-06-01 15:00:00,
2013-06-01 08:05:00,75.3,38.0,29.83,NW,306,8.0,8.0,26,0.00,,,0.00,WeatherCatV1.15B25,2013-06-01 15:05:00,
2013-06-01 08:10:00,75.4,38.1,29.83,NNW,335,5.0,7.0,26,0.00,,,0.00,WeatherCatV1.15B25,2013-06-01 15:10:00,
2013-06-01 08:15:00,75.3,38.0,29.83,NNW,346,1.0,7.0,26,0.00,,,0.00,WeatherCatV1.15B25,2013-06-01 15:15:00,
2013-06-01 08:20:00,75.3,38.0,29.83,NNW,339,4.0,5.0,26,0.00,,,0.00,WeatherCatV1.15B25,2013-06-01 15:20:00,
2013-06-01 08:25:00,75.3,38.0,29.83,NNW,335,3.0,6.0,26,0.00,,,0.00,WeatherCatV1.15B25,2013-06-01 15:25:00,
2013-06-01 08:30:00,75.4,38.1,29.83,NNW,337,1.0,4.0,26,0.00,,,0.00,WeatherCatV1.15B25,2013-06-01 15:30:00,
2013-06-01 08:35:00,75.6,38.3,29.83,NNW,339,3.0,4.0,26,0.00,,,0.00,WeatherCatV1.15B25,2013-06-01 15:35:00,
2013-06-01 08:40:00,75.7,39.3,29.83,NNW,331,1.0,8.0,27,0.00,,,0.00,WeatherCatV1.15B25,2013-06-01 15:40:00,
2013-06-01 08:45:00,76.0,39.6,29.83,NNW,335,2.0,6.0,27,0.00,,,0.00,WeatherCatV1.15B25,2013-06-01 15:45:00,
2013-06-01 08:50:00,76.2,38.8,29.83,NNW,329,3.0,6.0,26,0.00,,,0.00,WeatherCatV1.15B25,2013-06-01 15:50:00,
2013-06-01 08:55:00,76.2,38.8,29.83,NNW,335,4.0,8.0,26,0.00,,,0.00,WeatherCatV1.15B25,2013-06-01 15:55:00,
2013-06-01 09:00:00,76.3,38.9,29.83,NNW,343,3.0,6.0,26,0.00,,,0.00,WeatherCatV1.15B25,2013-06-01 16:00:00,
2013-06-01 09:05:00,76.4,40.9,29.83,NNW,342,3.0,5.0,28,0.00,,,0.00,WeatherCatV1.15B25,2013-06-01 16:05:00,
2013-06-01 09:10:00,76.5,40.0,29.83,NNW,346,0.0,4.0,27,0.00,,,0.00,WeatherCatV1.15B25,2013-06-01 16:10:00,
2013-06-01 09:15:00,76.6,38.1,29.83,NNW,341,0.0,6.0,25,0.00,,,0.00,WeatherCatV1.15B25,2013-06-01 16:15:00,
2013-06-01 09:20:00,76.8,39.3,29.83,NNW,337,5.0,6.0,26,0.00,,,0.00,WeatherCatV1.15B25,2013-06-01 16:20:00,
2013-06-01 09:25:00,76.8,40.3,29.83,NNW,333,4.0,8.0,27,0.00,,,0.00,WeatherCatV1.15B25,2013-06-01 16:25:00,
2013-06-01 09:30:00,76.9,40.4,29.83,NNW,337,3.0,3.0,27,0.00,,,0.00,WeatherCatV1.15B25,2013-06-01 16:30:00,
2013-06-01 09:35:00,77.1,39.6,29.83,NNW,330,3.0,4.0,26,0.00,,,0.00,WeatherCatV1.15B25,2013-06-01 16:35:00,
2013-06-01 09:40:00,77.4,38.8,29.83,NNW,329,3.0,4.0,25,0.00,,,0.00,WeatherCatV1.15B25,2013-06-01 16:40:00,
2013-06-01 09:45:00,77.6,40.0,29.83,NNW,335,0.0,2.0,26,0.00,,,0.00,WeatherCatV1.15B25,2013-06-01 16:45:00,
2013-06-01 09:50:00,77.9,39.2,29.83,NNW,338,0.0,4.0,25,0.00,,,0.00,WeatherCatV1.15B25,2013-06-01 16:50:00,
2013-06-01 09:55:00,78.2,39.5,29.83,NNW,343,2.0,5.0,25,0.00,,,0.00,WeatherCatV1.15B25,2013-06-01 16:55:00,
2013-06-01 10:00:00,78.3,40.6,29.83,NNW,335,0.0,1.0,26,0.00,,,0.00,WeatherCatV1.15B25,2013-06-01 17:00:00,
2013-06-01 10:05:00,78.5,39.7,29.83,NNW,341,1.0,5.0,25,0.00,,,0.00,WeatherCatV1.15B25,2013-06-01 17:05:00,
2013-06-01 10:10:00,78.7,39.9,29.83,North,350,2.0,3.0,25,0.00,,,0.00,WeatherCatV1.15B25,2013-06-01 17:10:00,
2013-06-01 10:15:00,78.9,40.1,29.83,NNW,343,2.0,4.0,25,0.00,,,0.00,WeatherCatV1.15B25,2013-06-01 17:15:00,
2013-06-01 10:20:00,79.1,40.2,29.83,NNW,337,2.0,4.0,25,0.00,,,0.00,WeatherCatV1.15B25,2013-06-01 17:20:00,
2013-06-01 10:25:00,79.3,40.4,29.83,North,352,1.0,3.0,25,0.00,,,0.00,WeatherCatV1.15B25,2013-06-01 17:25:00,
2013-06-01 10:30:00,79.7,39.7,29.83,NNW,337,3.0,5.0,24,0.00,,,0.00,WeatherCatV1.15B25,2013-06-01 17:30:00,
2013-06-01 10:35:00,79.8,39.8,29.83,NNW,338,1.0,5.0,24,0.00,,,0.00,WeatherCatV1.15B25,2013-06-01 17:35:00,
2013-06-01 10:40:00,80.0,41.0,29.83,NNW,329,2.0,3.0,25,0.00,,,0.00,WeatherCatV1.15B25,2013-06-01 17:40:00,
2013-06-01 10:45:00,80.2,39.0,29.83,NNW,337,2.0,4.0,23,0.00,,,0.00,WeatherCatV1.15B25,2013-06-01 17:45:00,
2013-06-01 10:50:00,80.3,39.1,29.83,North,352,1.0,3.0,23,0.00,,,0.00,WeatherCatV1.15B25,2013-06-01 17:50:00,
2013-06-01 10:55:00,80.7,47.2,29.83,ESE,106,1.0,2.0,31,0.00,,,0.00,WeatherCatV1.15B25,2013-06-01 17:55:00,
2013-06-01 11:00:00,81.3,46.9,29.82,NNW,337,0.0,0.0,30,0.00,,,0.00,WeatherCatV1.15B25,2013-06-01 18:00:00,
2013-06-01 11:05:00,81.7,48.1,29.82,SE,130,1.0,2.0,31,0.00,,,0.00,WeatherCatV1.15B25,2013-06-01 18:05:00,
2013-06-01 11:10:00,82.3,50.3,29.82,SSE,152,2.0,3.0,33,0.00,,,0.00,WeatherCatV1.15B25,2013-06-01 18:10:00,
2013-06-01 11:15:00,82.8,49.0,29.82,SSE,155,0.0,2.0,31,0.00,,,0.00,WeatherCatV1.15B25,2013-06-01 18:15:00,
2013-06-01 11:20:00,83.0,50.1,29.82,SSE,155,0.0,1.0,32,0.00,,,0.00,WeatherCatV1.15B25,2013-06-01 18:20:00,
2013-06-01 11:25:00,83.3,51.2,29.82,SSE,156,0.0,1.0,33,0.00,,,0.00,WeatherCatV1.15B25,2013-06-01 18:25:00,
2013-06-01 11:30:00,83.6,44.0,29.82,NNW,339,4.0,4.0,25,0.00,,,0.00,WeatherCatV1.15B25,2013-06-01 18:30:00,
2013-06-01 11:35:00,83.6,39.5,29.82,North,3,1.0,6.0,21,0.00,,,0.00,WeatherCatV1.15B25,2013-06-01 18:35:00,
2013-06-01 11:40:00,83.5,41.8,29.82,NNE,25,0.0,2.0,23,0.00,,,0.00,WeatherCatV1.15B25,2013-06-01 18:40:00,
2013-06-01 11:45:00,83.9,41.0,29.82,NNW,329,0.0,2.0,22,0.00,,,0.00,WeatherCatV1.15B25,2013-06-01 18:45:00,
2013-06-01 11:50:00,84.3,42.4,29.82,North,349,0.0,0.0,23,0.00,,,0.00,WeatherCatV1.15B25,2013-06-01 18:50:00,
2013-06-01 11:55:00,85.0,43.0,29.82,SSE,147,0.0,0.0,23,0.00,,,0.00,WeatherCatV1.15B25,2013-06-01 18:55:00,
2013-06-01 12:00:00,85.9,46.0,29.82,NNW,327,0.0,2.0,25,0.00,,,0.00,WeatherCatV1.15B25,2013-06-01 19:00:00,
2013-06-01 12:05:00,86.1,42.8,29.82,East,99,0.0,1.0,22,0.00,,,0.00,WeatherCatV1.15B25,2013-06-01 19:05:00,
2013-06-01 12:10:00,85.7,41.2,29.82,NNW,338,1.0,6.0,21,0.00,,,0.00,WeatherCatV1.15B25,2013-06-01 19:10:00,
2013-06-01 12:15:00,85.7,46.8,29.82,North,351,0.0,2.0,26,0.00,,,0.00,WeatherCatV1.15B25,2013-06-01 19:15:00,
2013-06-01 12:20:00,87.1,51.9,29.82,SE,127,0.0,1.0,30,0.00,,,0.00,WeatherCatV1.15B25,2013-06-01 19:20:00,
2013-06-01 12:25:00,88.0,51.7,29.82,SE,144,0.0,2.0,29,0.00,,,0.00,WeatherCatV1.15B25,2013-06-01 19:25:00,
2013-06-01 12:30:00,88.5,50.2,29.82,SSE,165,0.0,2.0,27,0.00,,,0.00,WeatherCatV1.15B25,2013-06-01 19:30:00,
2013-06-01 12:35:00,89.1,45.3,29.82,SE,146,1.0,2.0,22,0.00,,,0.00,WeatherCatV1.15B25,2013-06-01 19:35:00,
2013-06-01 12:40:00,88.8,43.8,29.82,ENE,59,0.0,1.0,21,0.00,,,0.00,WeatherCatV1.15B25,2013-06-01 19:40:00,
2013-06-01 12:45:00,88.8,43.8,29.82,NNW,335,2.0,2.0,21,0.00,,,0.00,WeatherCatV1.15B25,2013-06-01 19:45:00,
2013-06-01 12:50:00,88.5,40.9,29.82,NNW,333,0.0,3.0,19,0.00,,,0.00,WeatherCatV1.15B25,2013-06-01 19:50:00,
2013-06-01 12:55:00,88.3,42.1,29.82,North,8,2.0,2.0,20,0.00,,,0.00,WeatherCatV1.15B25,2013-06-01 19:55:00,
2013-06-01 13:00:00,88.3,42.1,29.81,NNW,343,0.0,2.0,20,0.00,,,0.00,WeatherCatV1.15B25,2013-06-01 20:00:00,
2013-06-01 13:05:00,88.8,39.8,29.81,NNE,15,0.0,5.0,18,0.00,,,0.00,WeatherCatV1.15B25,2013-06-01 20:05:00,
2013-06-01 13:10:00,89.2,40.1,29.81,SE,127,0.0,0.0,18,0.00,,,0.00,WeatherCatV1.15B25,2013-06-01 20:10:00,
2013-06-01 13:15:00,89.2,40.1,29.81,North,354,0.0,2.0,18,0.00,,,0.00,WeatherCatV1.15B25,2013-06-01 20:15:00,
2013-06-01 13:20:00,89.4,41.7,29.81,North,2,0.0,3.0,19,0.00,,,0.00,WeatherCatV1.15B25,2013-06-01 20:20:00,
2013-06-01 13:25:00,88.9,42.6,29.81,NNW,332,3.0,4.0,20,0.00,,,0.00,WeatherCatV1.15B25,2013-06-01 20:25:00,
2013-06-01 13:30:00,88.7,42.4,29.81,ENE,64,1.0,1.0,20,0.00,,,0.00,WeatherCatV1.15B25,2013-06-01 20:30:00,
2013-06-01 13:35:00,89.5,41.8,29.81,East,81,1.0,2.0,19,0.00,,,0.00,WeatherCatV1.15B25,2013-06-01 20:35:00,
2013-06-01 13:40:00,89.9,52.4,29.81,SE,142,0.0,1.0,28,0.00,,,0.00,WeatherCatV1.15B25,2013-06-01 20:40:00,
2013-06-01 13:45:00,90.4,45.1,29.80,SE,146,0.0,2.0,21,0.00,,,0.00,WeatherCatV1.15B25,2013-06-01 20:45:00,
2013-06-01 13:50:00,91.0,53.3,29.80,SE,135,2.0,3.0,28,0.00,,,0.00,WeatherCatV1.15B25,2013-06-01 20:50:00,
2013-06-01 13:55:00,91.2,53.5,29.80,SE,127,1.0,2.0,28,0.00,,,0.00,WeatherCatV1.15B25,2013-06-01 20:55:00,
2013-06-01 14:00:00,90.5,52.9,29.80,SE,135,0.0,1.0,28,0.00,,,0.00,WeatherCatV1.15B25,2013-06-01 21:00:00,
2013-06-01 14:05:00,89.2,53.7,29.80,SE,141,0.0,2.0,30,0.00,,,0.00,WeatherCatV1.15B25,2013-06-01 21:05:00,
2013-06-01 14:10:00,88.5,52.1,29.80,SE,141,0.0,2.0,29,0.00,,,0.00,WeatherCatV1.15B25,2013-06-01 21:10:00,
2013-06-01 14:15:00,88.3,53.8,29.80,SE,135,1.0,2.0,31,0.00,,,0.00,WeatherCatV1.15B25,2013-06-01 21:15:00,
2013-06-01 14:20:00,88.2,51.9,29.80,SE,136,1.0,2.0,29,0.00,,,0.00,WeatherCatV1.15B25,2013-06-01 21:20:00,
2013-06-01 14:25:00,87.5,51.3,29.80,SE,124,2.0,2.0,29,0.00,,,0.00,WeatherCatV1.15B25,2013-06-01 21:25:00,
2013-06-01 14:30:00,87.1,50.9,29.80,SE,145,0.0,2.0,29,0.00,,,0.00,WeatherCatV1.15B25,2013-06-01 21:30:00,
2013-06-01 14:35:00,86.9,49.8,29.80,ESE,117,0.0,3.0,28,0.00,,,0.00,WeatherCatV1.15B25,2013-06-01 21:35:00,
2013-06-01 14:40:00,86.6,49.6,29.80,SE,134,0.0,2.0,28,0.00,,,0.00,WeatherCatV1.15B25,2013-06-01 21:40:00,
2013-06-01 14:45:00,86.6,48.6,29.79,SE,134,1.0,3.0,27,0.00,,,0.00,WeatherCatV1.15B25,2013-06-01 21:45:00,
2013-06-01 14:50:00,86.6,48.6,29.79,SE,133,0.0,2.0,27,0.00,,,0.00,WeatherCatV1.15B25,2013-06-01 21:50:00,
2013-06-01 14:55:00,86.4,47.4,29.79,NNW,345,0.0,2.0,26,0.00,,,0.00,WeatherCatV1.15B25,2013-06-01 21:55:00,
2013-06-01 15:00:00,86.3,49.3,29.78,NNE,33,1.0,1.0,28,0.00,,,0.00,WeatherCatV1.15B25,2013-06-01 22:00:00,
2013-06-01 15:05:00,86.2,49.2,29.78,South,169,0.0,1.0,28,0.00,,,0.00,WeatherCatV1.15B25,2013-06-01 22:05:00,
2013-06-01 15:10:00,86.3,49.3,29.78,ESE,119,0.0,5.0,28,0.00,,,0.00,WeatherCatV1.15B25,2013-06-01 22:10:00,
2013-06-01 15:15:00,86.3,49.3,29.78,SSE,160,0.0,2.0,28,0.00,,,0.00,WeatherCatV1.15B25,2013-06-01 22:15:00,
2013-06-01 15:20:00,86.5,49.5,29.78,SSE,158,0.0,0.0,28,0.00,,,0.00,WeatherCatV1.15B25,2013-06-01 22:20:00,
2013-06-01 15:25:00,86.4,48.4,29.78,SSE,160,0.0,0.0,27,0.00,,,0.00,WeatherCatV1.15B25,2013-06-01 22:25:00,
2013-06-01 15:30:00,86.3,48.3,29.78,SSE,159,0.0,2.0,27,0.00,,,0.00,WeatherCatV1.15B25,2013-06-01 22:30:00,
2013-06-01 15:35:00,86.4,49.4,29.78,SE,144,1.0,2.0,28,0.00,,,0.00,WeatherCatV1.15B25,2013-06-01 22:35:00,
2013-06-01 15:40:00,86.5,48.5,29.78,SE,136,1.0,1.0,27,0.00,,,0.00,WeatherCatV1.15B25,2013-06-01 22:40:00,
2013-06-01 15:45:00,86.8,44.5,29.78,SSE,160,1.0,3.0,23,0.00,,,0.00,WeatherCatV1.15B25,2013-06-01 22:45:00,
2013-06-01 15:50:00,87.1,44.8,29.78,NNW,339,2.0,3.0,23,0.00,,,0.00,WeatherCatV1.15B25,2013-06-01 22:50:00,
2013-06-01 15:55:00,87.3,42.6,29.78,NNW,345,2.0,2.0,21,0.00,,,0.00,WeatherCatV1.15B25,2013-06-01 22:55:00,
2013-06-01 16:00:00,87.2,42.5,29.77,NNE,31,1.0,5.0,21,0.00,,,0.00,WeatherCatV1.15B25,2013-06-01 23:00:00,
2013-06-01 16:05:00,87.2,42.5,29.77,NNW,348,0.0,3.0,21,0.00,,,0.00,WeatherCatV1.15B25,2013-06-01 23:05:00,
2013-06-01 16:10:00,87.2,42.5,29.77,NNW,343,1.0,4.0,21,0.00,,,0.00,WeatherCatV1.15B25,2013-06-01 23:10:00,
2013-06-01 16:15:00,87.0,42.3,29.77,NNW,335,0.0,3.0,21,0.00,,,0.00,WeatherCatV1.15B25,2013-06-01 23:15:00,
2013-06-01 16:20:00,86.9,41.0,29.77,NNW,329,1.0,4.0,20,0.00,,,0.00,WeatherCatV1.15B25,2013-06-01 23:20:00,
2013-06-01 16:25:00,86.4,39.2,29.77,NNW,331,5.0,8.0,19,0.00,,,0.00,WeatherCatV1.15B25,2013-06-01 23:25:00,
2013-06-01 16:30:00,85.8,37.4,29.77,East,94,0.0,5.0,18,0.00,,,0.00,WeatherCatV1.15B25,2013-06-01 23:30:00,
2013-06-01 16:35:00,85.7,41.2,29.77,NW,320,0.0,3.0,21,0.00,,,0.00,WeatherCatV1.15B25,2013-06-01 23:35:00,
2013-06-01 16:40:00,85.7,42.4,29.77,East,92,0.0,2.0,22,0.00,,,0.00,WeatherCatV1.15B25,2013-06-01 23:40:00,
2013-06-01 16:45:00,85.6,42.4,29.76,North,351,2.0,2.0,22,0.00,,,0.00,WeatherCatV1.15B25,2013-06-01 23:45:00,
2013-06-01 16:50:00,85.5,41.1,29.76,NNE,31,0.0,2.0,21,0.00,,,0.00,WeatherCatV1.15B25,2013-06-01 23:50:00,
2013-06-01 16:55:00,85.4,41.0,29.76,ESE,117,1.0,1.0,21,0.00,,,0.00,WeatherCatV1.15B25,2013-06-01 23:55:00,
2013-06-01 17:00:00,85.2,40.8,29.76,NNW,335,2.0,6.0,21,0.00,,,0.00,WeatherCatV1.15B25,2013-06-02 00:00:00,
2013-06-01 17:05:00,85.0,40.7,29.76,NNW,335,2.0,3.0,21,0.00,,,0.00,WeatherCatV1.15B25,2013-06-02 00:05:00,
2013-06-01 17:10:00,84.8,37.9,29.76,NW,326,1.0,4.0,19,0.00,,,0.00,WeatherCatV1.15B25,2013-06-02 00:10:00,
2013-06-01 17:15:00,84.7,39.2,29.76,NNW,340,3.0,8.0,20,0.00,,,0.00,WeatherCatV1.15B25,2013-06-02 00:15:00,
2013-06-01 17:20:00,84.7,40.4,29.76,NNW,336,1.0,4.0,21,0.00,,,0.00,WeatherCatV1.15B25,2013-06-02 00:20:00,
2013-06-01 17:25:00,84.5,40.3,29.76,NNE,25,0.0,5.0,21,0.00,,,0.00,WeatherCatV1.15B25,2013-06-02 00:25:00,
2013-06-01 17:30:00,84.3,40.1,29.75,North,8,1.0,3.0,21,0.00,,,0.00,WeatherCatV1.15B25,2013-06-02 00:30:00,
2013-06-01 17:35:00,84.0,39.8,29.75,NNW,331,1.0,4.0,21,0.00,,,0.00,WeatherCatV1.15B25,2013-06-02 00:35:00,
2013-06-01 17:40:00,83.8,37.1,29.75,NNW,339,3.0,5.0,19,0.00,,,0.00,WeatherCatV1.15B25,2013-06-02 00:40:00,
2013-06-01 17:45:00,83.8,38.4,29.75,North,354,1.0,5.0,20,0.00,,,0.00,WeatherCatV1.15B25,2013-06-02 00:45:00,
2013-06-01 17:50:00,83.8,38.4,29.75,NNW,337,3.0,5.0,20,0.00,,,0.00,WeatherCatV1.15B25,2013-06-02 00:50:00,
2013-06-01 17:55:00,83.8,38.4,29.75,NNW,332,3.0,5.0,20,0.00,,,0.00,WeatherCatV1.15B25,2013-06-02 00:55:00,
2013-06-01 18:00:00,83.7,38.3,29.75,NNW,329,3.0,3.0,20,0.00,,,0.00,WeatherCatV1.15B25,2013-06-02 01:00:00,
2013-06-01 18:05:00,83.7,38.3,29.75,NNW,338,1.0,4.0,20,0.00,,,0.00,WeatherCatV1.15B25,2013-06-02 01:05:00,
2013-06-01 18:10:00,83.8,38.4,29.75,NNW,347,1.0,3.0,20,0.00,,,0.00,WeatherCatV1.15B25,2013-06-02 01:10:00,
2013-06-01 18:15:00,83.9,38.5,29.75,North,7,3.0,6.0,20,0.00,,,0.00,WeatherCatV1.15B25,2013-06-02 01:15:00,
2013-06-01 18:20:00,84.0,38.6,29.75,NNW,341,0.0,3.0,20,0.00,,,0.00,WeatherCatV1.15B25,2013-06-02 01:20:00,
2013-06-01 18:25:00,84.0,38.6,29.75,North,349,3.0,5.0,20,0.00,,,0.00,WeatherCatV1.15B25,2013-06-02 01:25:00,
2013-06-01 18:30:00,83.9,38.5,29.74,NNW,339,3.0,4.0,20,0.00,,,0.00,WeatherCatV1.15B25,2013-06-02 01:30:00,
2013-06-01 18:32:00,83.8,38.4,29.74,NNW,341,2.0,10.0,20,0.00,,,0.00,WeatherCatV1.15B25,2013-06-02 01:32:00,
2013-06-01 18:37:00,83.4,39.3,29.74,NNW,347,0.0,4.0,21,0.00,,,0.00,WeatherCatV1.15B25,2013-06-02 01:37:00,
2013-06-01 18:42:00,82.9,38.9,29.74,NW,325,2.0,3.0,21,0.00,,,0.00,WeatherCatV1.15B25,2013-06-02 01:42:00,
2013-06-01 18:47:00,82.6,38.7,29.74,NNW,341,1.0,2.0,21,0.00,,,0.00,WeatherCatV1.15B25,2013-06-02 01:47:00,
2013-06-01 18:52:00,82.3,38.4,29.74,NE,40,1.0,3.0,21,0.00,,,0.00,WeatherCatV1.15B25,2013-06-02 01:52:00,
2013-06-01 18:57:00,82.0,38.2,29.74,NNW,339,0.0,2.0,21,0.00,,,0.00,WeatherCatV1.15B25,2013-06-02 01:57:00,
2013-06-01 19:02:00,81.6,39.0,29.74,NNW,339,2.0,2.0,22,0.00,,,0.00,WeatherCatV1.15B25,2013-06-02 02:02:00,
2013-06-01 19:07:00,81.2,39.9,29.74,NNW,334,2.0,2.0,23,0.00,,,0.00,WeatherCatV1.15B25,2013-06-02 02:07:00,
2013-06-01 19:12:00,80.7,39.4,29.74,NNW,336,3.0,3.0,23,0.00,,,0.00,WeatherCatV1.15B25,2013-06-02 02:12:00,
2013-06-01 19:17:00,80.3,40.2,29.74,NNW,328,2.0,4.0,24,0.00,,,0.00,WeatherCatV1.15B25,2013-06-02 02:17:00,
2013-06-01 19:22:00,80.0,41.0,29.74,NNW,331,2.0,5.0,25,0.00,,,0.00,WeatherCatV1.15B25,2013-06-02 02:22:00,
2013-06-01 19:27:00,79.8,41.8,29.74,NNW,341,2.0,4.0,26,0.00,,,0.00,WeatherCatV1.15B25,2013-06-02 02:27:00,
2013-06-01 19:32:00,79.5,41.6,29.73,NNW,340,3.0,3.0,26,0.00,,,0.00,WeatherCatV1.15B25,2013-06-02 02:32:00,
2013-06-01 19:37:00,79.3,41.4,29.73,NNW,334,3.0,4.0,26,0.00,,,0.00,WeatherCatV1.15B25,2013-06-02 02:37:00,
2013-06-01 19:42:00,79.3,42.4,29.73,NNW,337,4.0,4.0,27,0.00,,,0.00,WeatherCatV1.15B25,2013-06-02 02:42:00,
2013-06-01 19:47:00,79.1,42.2,29.73,NNW,337,5.0,5.0,27,0.00,,,0.00,WeatherCatV1.15B25,2013-06-02 02:47:00,
2013-06-01 19:52:00,79.0,42.1,29.73,NNW,332,5.0,5.0,27,0.00,,,0.00,WeatherCatV1.15B25,2013-06-02 02:52:00,
2013-06-01 19:57:00,78.9,43.0,29.73,NNW,335,4.0,4.0,28,0.00,,,0.00,WeatherCatV1.15B25,2013-06-02 02:57:00,
2013-06-01 20:02:00,78.8,42.9,29.73,NNW,329,4.0,5.0,28,0.00,,,0.00,WeatherCatV1.15B25,2013-06-02 03:02:00,
2013-06-01 20:07:00,78.5,42.7,29.73,NNW,331,6.0,6.0,28,0.00,,,0.00,WeatherCatV1.15B25,2013-06-02 03:07:00,
2013-06-01 20:12:00,78.3,43.4,29.73,NNW,332,3.0,6.0,29,0.00,,,0.00,WeatherCatV1.15B25,2013-06-02 03:12:00,
2013-06-01 20:17:00,77.9,43.1,29.73,NW,319,4.0,4.0,29,0.00,,,0.00,WeatherCatV1.15B25,2013-06-02 03:17:00,
2013-06-01 20:22:00,77.5,42.7,29.73,NNW,342,4.0,4.0,29,0.00,,,0.00,WeatherCatV1.15B25,2013-06-02 03:22:00,
2013-06-01 20:27:00,77.1,43.3,29.73,NNW,341,3.0,5.0,30,0.00,,,0.00,WeatherCatV1.15B25,2013-06-02 03:27:00,
2013-06-01 20:32:00,76.7,42.9,29.73,NNW,329,4.0,5.0,30,0.00,,,0.00,WeatherCatV1.15B25,2013-06-02 03:32:00,
2013-06-01 20:37:00,76.5,42.7,29.73,NE,48,1.0,4.0,30,0.00,,,0.00,WeatherCatV1.15B25,2013-06-02 03:37:00,
2013-06-01 20:42:00,76.3,41.7,29.73,NW,319,4.0,5.0,29,0.00,,,0.00,WeatherCatV1.15B25,2013-06-02 03:42:00,
2013-06-01 20:47:00,76.1,41.5,29.73,NNW,339,3.0,4.0,29,0.00,,,0.00,WeatherCatV1.15B25,2013-06-02 03:47:00,
2013-06-01 20:52:00,75.9,41.3,29.73,NNW,337,3.0,3.0,29,0.00,,,0.00,WeatherCatV1.15B25,2013-06-02 03:52:00,
2013-06-01 20:57:00,75.7,41.2,29.73,North,350,3.0,4.0,29,0.00,,,0.00,WeatherCatV1.15B25,2013-06-02 03:57:00,
2013-06-01 21:01:00,75.6,41.1,29.73,NNW,327,3.0,5.0,29,0.00,,,0.00,WeatherCatV1.15B25,2013-06-02 04:01:00,
2013-06-01 21:06:00,75.2,41.6,29.73,NNW,333,4.0,5.0,30,0.00,,,0.00,WeatherCatV1.15B25,2013-06-02 04:06:00,
2013-06-01 21:11:00,75.0,40.6,29.73,NNW,333,4.0,6.0,29,0.00,,,0.00,WeatherCatV1.15B25,2013-06-02 04:11:00,
2013-06-01 21:16:00,75.4,40.0,29.73,NNW,328,4.0,6.0,28,0.00,,,0.00,WeatherCatV1.15B25,2013-06-02 04:16:00,
2013-06-01 21:21:00,75.5,39.2,29.73,NNW,333,2.0,5.0,27,0.00,,,0.00,WeatherCatV1.15B25,2013-06-02 04:21:00,
2013-06-01 21:26:00,75.5,40.1,29.73,NNW,334,1.0,3.0,28,0.00,,,0.00,WeatherCatV1.15B25,2013-06-02 04:26:00,
2013-06-01 21:31:00,75.5,39.2,29.73,NNW,337,2.0,2.0,27,0.00,,,0.00,WeatherCatV1.15B25,2013-06-02 04:31:00,
2013-06-01 21:36:00,75.5,39.2,29.73,NNW,332,0.0,3.0,27,0.00,,,0.00,WeatherCatV1.15B25,2013-06-02 04:36:00,
2013-06-01 21:41:00,75.3,39.0,29.73,NNW,333,1.0,3.0,27,0.00,,,0.00,WeatherCatV1.15B25,2013-06-02 04:41:00,
2013-06-01 21:46:00,75.2,39.8,29.73,NNW,333,1.0,2.0,28,0.00,,,0.00,WeatherCatV1.15B25,2013-06-02 04:46:00,
2013-06-01 21:51:00,74.9,39.6,29.73,NNW,333,1.0,2.0,28,0.00,,,0.00,WeatherCatV1.15B25,2013-06-02 04:51:00,
2013-06-01 21:56:00,74.8,40.4,29.73,NNW,343,1.0,2.0,29,0.00,,,0.00,WeatherCatV1.15B25,2013-06-02 04:56:00,
2013-06-01 22:01:00,74.8,40.4,29.74,NNW,331,1.0,2.0,29,0.00,,,0.00,WeatherCatV1.15B25,2013-06-02 05:01:00,
2013-06-01 22:06:00,74.8,40.4,29.74,NNW,331,0.0,0.0,29,0.00,,,0.00,WeatherCatV1.15B25,2013-06-02 05:06:00,
2013-06-01 22:11:00,74.7,40.3,29.74,NNW,331,0.0,0.0,29,0.00,,,0.00,WeatherCatV1.15B25,2013-06-02 05:11:00,
2013-06-01 22:16:00,74.6,40.2,29.74,NNW,331,0.0,0.0,29,0.00,,,0.00,WeatherCatV1.15B25,2013-06-02 05:16:00,
2013-06-01 22:21:00,74.4,40.1,29.74,NNW,331,0.0,0.0,29,0.00,,,0.00,WeatherCatV1.15B25,2013-06-02 05:21:00,
2013-06-01 22:26:00,74.3,40.0,29.74,NNW,331,0.0,0.0,29,0.00,,,0.00,WeatherCatV1.15B25,2013-06-02 05:26:00,
2013-06-01 22:31:00,74.2,39.9,29.74,NNW,331,0.0,0.0,29,0.00,,,0.00,WeatherCatV1.15B25,2013-06-02 05:31:00,
2013-06-01 22:36:00,74.2,39.9,29.74,NNW,331,0.0,0.0,29,0.00,,,0.00,WeatherCatV1.15B25,2013-06-02 05:36:00,
2013-06-01 22:41:00,74.1,39.8,29.74,NNW,331,0.0,0.0,29,0.00,,,0.00,WeatherCatV1.15B25,2013-06-02 05:41:00,
2013-06-01 22:46:00,74.0,39.7,29.73,NNW,331,0.0,1.0,29,0.00,,,0.00,WeatherCatV1.15B25,2013-06-02 05:46:00,
2013-06-01 22:51:00,73.9,40.5,29.73,NNW,331,0.0,0.0,30,0.00,,,0.00,WeatherCatV1.15B25,2013-06-02 05:51:00,
2013-06-01 22:56:00,73.8,40.4,29.73,NNW,331,0.0,0.0,30,0.00,,,0.00,WeatherCatV1.15B25,2013-06-02 05:56:00,
2013-06-01 23:01:00,73.8,41.3,29.73,NNW,331,0.0,0.0,31,0.00,,,0.00,WeatherCatV1.15B25,2013-06-02 06:01:00,
2013-06-01 23:06:00,73.7,42.0,29.73,NNW,331,0.0,0.0,32,0.00,,,0.00,WeatherCatV1.15B25,2013-06-02 06:06:00,
2013-06-01 23:11:00,73.7,42.0,29.73,NNW,331,0.0,0.0,32,0.00,,,0.00,WeatherCatV1.15B25,2013-06-02 06:11:00,
2013-06-01 23:16:00,73.7,41.2,29.73,NNW,331,0.0,0.0,31,0.00,,,0.00,WeatherCatV1.15B25,2013-06-02 06:16:00,
2013-06-01 23:21:00,73.6,41.9,29.73,NNW,331,0.0,1.0,32,0.00,,,0.00,WeatherCatV1.15B25,2013-06-02 06:21:00,
2013-06-01 23:26:00,73.5,41.8,29.73,NNW,331,0.0,0.0,32,0.00,,,0.00,WeatherCatV1.15B25,2013-06-02 06:26:00,
2013-06-01 23:31:00,73.4,40.9,29.72,NNW,331,0.0,0.0,31,0.00,,,0.00,WeatherCatV1.15B25,2013-06-02 06:31:00,
2013-06-01 23:36:00,73.3,40.8,29.72,NNW,331,0.0,0.0,31,0.00,,,0.00,WeatherCatV1.15B25,2013-06-02 06:36:00,
2013-06-01 23:41:00,73.2,40.7,29.72,NNW,331,0.0,0.0,31,0.00,,,0.00,WeatherCatV1.15B25,2013-06-02 06:41:00,
2013-06-01 23:46:00,73.1,40.7,29.72,NNW,331,0.0,0.0,31,0.00,,,0.00,WeatherCatV1.15B25,2013-06-02 06:46:00,
2013-06-01 23:51:00,73.1,40.7,29.72,NNW,331,0.0,1.0,31,0.00,,,0.00,WeatherCatV1.15B25,2013-06-02 06:51:00,
2013-06-01 23:56:00,73.0,40.6,29.72,NNW,331,0.0,0.0,31,0.00,,,0.00,WeatherCatV1.15B25,2013-06-02 06:56:00,